sensor_id;sensor_type;location;lat;lon;timestamp;P1;durP1;ratioP1;P2;durP2;ratioP2
11396;SDS011;5754;43.726;7.416;2023-01-06T00:00:51;9.17;;;3.67;;
11396;SDS011;5754;43.726;7.416;2023-01-06T00:03:25;5.37;;;3.40;;
11396;SDS011;5754;43.726;7.416;2023-01-06T00:06:00;7.97;;;3.73;;
11396;SDS011;5754;43.726;7.416;2023-01-06T00:08:35;6.87;;;3.13;;
11396;SDS011;5754;43.726;7.416;2023-01-06T00:11:10;7.83;;;3.60;;
11396;SDS011;5754;43.726;7.416;2023-01-06T00:13:45;4.70;;;3.30;;
11396;SDS011;5754;43.726;7.416;2023-01-06T00:16:19;5.00;;;3.53;;
11396;SDS011;5754;43.726;7.416;2023-01-06T00:18:54;7.17;;;3.30;;
11396;SDS011;5754;43.726;7.416;2023-01-06T00:21:29;6.37;;;3.30;;
11396;SDS011;5754;43.726;7.416;2023-01-06T00:24:04;6.23;;;3.47;;
11396;SDS011;5754;43.726;7.416;2023-01-06T00:26:39;5.00;;;3.73;;
11396;SDS011;5754;43.726;7.416;2023-01-06T00:29:14;8.20;;;3.60;;
11396;SDS011;5754;43.726;7.416;2023-01-06T00:31:48;5.20;;;3.47;;
11396;SDS011;5754;43.726;7.416;2023-01-06T00:34:22;4.67;;;3.10;;
11396;SDS011;5754;43.726;7.416;2023-01-06T00:36:56;9.30;;;3.27;;
11396;SDS011;5754;43.726;7.416;2023-01-06T00:39:32;5.90;;;3.13;;
11396;SDS011;5754;43.726;7.416;2023-01-06T00:42:06;6.60;;;3.47;;
11396;SDS011;5754;43.726;7.416;2023-01-06T00:44:41;6.40;;;3.10;;
11396;SDS011;5754;43.726;7.416;2023-01-06T00:47:17;6.03;;;3.07;;
11396;SDS011;5754;43.726;7.416;2023-01-06T00:49:53;5.53;;;3.20;;
11396;SDS011;5754;43.726;7.416;2023-01-06T00:52:28;6.17;;;3.17;;
11396;SDS011;5754;43.726;7.416;2023-01-06T00:55:05;5.63;;;3.97;;
11396;SDS011;5754;43.726;7.416;2023-01-06T00:57:39;6.10;;;3.37;;
11396;SDS011;5754;43.726;7.416;2023-01-06T01:00:14;9.47;;;3.80;;
11396;SDS011;5754;43.726;7.416;2023-01-06T01:02:49;5.70;;;3.13;;
11396;SDS011;5754;43.726;7.416;2023-01-06T01:05:24;4.17;;;2.93;;
11396;SDS011;5754;43.726;7.416;2023-01-06T01:07:58;7.07;;;3.33;;
11396;SDS011;5754;43.726;7.416;2023-01-06T01:10:32;3.90;;;2.83;;
11396;SDS011;5754;43.726;7.416;2023-01-06T01:13:07;6.27;;;3.20;;
11396;SDS011;5754;43.726;7.416;2023-01-06T01:15:42;8.90;;;4.13;;
11396;SDS011;5754;43.726;7.416;2023-01-06T01:18:16;7.00;;;3.83;;
11396;SDS011;5754;43.726;7.416;2023-01-06T01:20:50;3.77;;;3.07;;
11396;SDS011;5754;43.726;7.416;2023-01-06T01:23:25;5.30;;;3.10;;
11396;SDS011;5754;43.726;7.416;2023-01-06T01:25:59;3.67;;;2.40;;
11396;SDS011;5754;43.726;7.416;2023-01-06T01:28:34;4.50;;;2.70;;
11396;SDS011;5754;43.726;7.416;2023-01-06T01:31:08;5.37;;;2.90;;
11396;SDS011;5754;43.726;7.416;2023-01-06T01:33:43;3.67;;;2.53;;
11396;SDS011;5754;43.726;7.416;2023-01-06T01:36:17;7.80;;;3.00;;
11396;SDS011;5754;43.726;7.416;2023-01-06T01:38:52;3.93;;;2.37;;
11396;SDS011;5754;43.726;7.416;2023-01-06T01:41:27;4.83;;;2.20;;
11396;SDS011;5754;43.726;7.416;2023-01-06T01:44:03;6.20;;;2.80;;
11396;SDS011;5754;43.726;7.416;2023-01-06T01:51:20;6.43;;;2.87;;
11396;SDS011;5754;43.726;7.416;2023-01-06T01:53:57;7.80;;;2.80;;
11396;SDS011;5754;43.726;7.416;2023-01-06T01:56:33;4.47;;;2.80;;
11396;SDS011;5754;43.726;7.416;2023-01-06T01:59:13;4.17;;;2.53;;
11396;SDS011;5754;43.726;7.416;2023-01-06T02:01:49;5.87;;;2.60;;
11396;SDS011;5754;43.726;7.416;2023-01-06T02:04:25;4.40;;;2.60;;
11396;SDS011;5754;43.726;7.416;2023-01-06T02:07:03;4.20;;;2.40;;
11396;SDS011;5754;43.726;7.416;2023-01-06T02:09:45;4.03;;;2.67;;
11396;SDS011;5754;43.726;7.416;2023-01-06T02:12:22;8.17;;;2.80;;
11396;SDS011;5754;43.726;7.416;2023-01-06T02:14:57;5.77;;;2.73;;
11396;SDS011;5754;43.726;7.416;2023-01-06T02:17:36;4.57;;;2.60;;
11396;SDS011;5754;43.726;7.416;2023-01-06T02:20:39;5.97;;;2.67;;
11396;SDS011;5754;43.726;7.416;2023-01-06T02:23:32;5.27;;;2.80;;
11396;SDS011;5754;43.726;7.416;2023-01-06T02:35:50;6.33;;;2.23;;
11396;SDS011;5754;43.726;7.416;2023-01-06T02:39:32;3.67;;;2.00;;
11396;SDS011;5754;43.726;7.416;2023-01-06T02:42:16;2.73;;;2.00;;
11396;SDS011;5754;43.726;7.416;2023-01-06T02:45:15;5.13;;;2.30;;
11396;SDS011;5754;43.726;7.416;2023-01-06T02:47:57;3.57;;;2.20;;
11396;SDS011;5754;43.726;7.416;2023-01-06T02:50:39;5.00;;;1.93;;
11396;SDS011;5754;43.726;7.416;2023-01-06T03:02:32;3.83;;;1.90;;
11396;SDS011;5754;43.726;7.416;2023-01-06T03:05:09;3.97;;;2.20;;
11396;SDS011;5754;43.726;7.416;2023-01-06T03:07:45;4.03;;;2.03;;
11396;SDS011;5754;43.726;7.416;2023-01-06T03:10:21;2.77;;;2.00;;
11396;SDS011;5754;43.726;7.416;2023-01-06T03:13:05;3.50;;;2.00;;
11396;SDS011;5754;43.726;7.416;2023-01-06T03:15:43;4.43;;;2.00;;
11396;SDS011;5754;43.726;7.416;2023-01-06T03:18:18;3.40;;;1.90;;
11396;SDS011;5754;43.726;7.416;2023-01-06T03:20:53;4.90;;;2.20;;
11396;SDS011;5754;43.726;7.416;2023-01-06T03:26:11;3.80;;;1.80;;
11396;SDS011;5754;43.726;7.416;2023-01-06T03:28:46;4.37;;;1.70;;
11396;SDS011;5754;43.726;7.416;2023-01-06T03:41:44;4.27;;;2.40;;
11396;SDS011;5754;43.726;7.416;2023-01-06T03:45:29;5.90;;;2.20;;
11396;SDS011;5754;43.726;7.416;2023-01-06T03:51:01;4.13;;;2.03;;
11396;SDS011;5754;43.726;7.416;2023-01-06T03:53:40;3.80;;;2.00;;
11396;SDS011;5754;43.726;7.416;2023-01-06T04:00:28;1.90;;;1.27;;
11396;SDS011;5754;43.726;7.416;2023-01-06T04:03:08;3.70;;;1.60;;
11396;SDS011;5754;43.726;7.416;2023-01-06T04:05:48;3.20;;;1.53;;
11396;SDS011;5754;43.726;7.416;2023-01-06T04:08:25;3.57;;;1.93;;
11396;SDS011;5754;43.726;7.416;2023-01-06T04:11:01;3.90;;;1.93;;
11396;SDS011;5754;43.726;7.416;2023-01-06T04:13:37;3.87;;;1.87;;
11396;SDS011;5754;43.726;7.416;2023-01-06T04:16:11;5.10;;;1.97;;
11396;SDS011;5754;43.726;7.416;2023-01-06T04:18:45;3.13;;;1.70;;
11396;SDS011;5754;43.726;7.416;2023-01-06T04:21:22;3.20;;;1.80;;
11396;SDS011;5754;43.726;7.416;2023-01-06T04:23:56;5.30;;;2.00;;
11396;SDS011;5754;43.726;7.416;2023-01-06T04:26:31;4.77;;;1.97;;
11396;SDS011;5754;43.726;7.416;2023-01-06T04:29:06;4.53;;;2.10;;
11396;SDS011;5754;43.726;7.416;2023-01-06T04:31:43;3.67;;;1.77;;
11396;SDS011;5754;43.726;7.416;2023-01-06T04:34:17;4.37;;;1.70;;
11396;SDS011;5754;43.726;7.416;2023-01-06T04:36:59;2.70;;;1.30;;
11396;SDS011;5754;43.726;7.416;2023-01-06T04:39:33;3.93;;;1.80;;
11396;SDS011;5754;43.726;7.416;2023-01-06T04:42:08;5.53;;;1.80;;
11396;SDS011;5754;43.726;7.416;2023-01-06T04:44:42;5.10;;;2.07;;
11396;SDS011;5754;43.726;7.416;2023-01-06T04:47:17;4.57;;;2.17;;
11396;SDS011;5754;43.726;7.416;2023-01-06T04:49:51;7.17;;;2.27;;
11396;SDS011;5754;43.726;7.416;2023-01-06T04:52:28;4.33;;;1.67;;
11396;SDS011;5754;43.726;7.416;2023-01-06T04:55:03;2.97;;;1.60;;
11396;SDS011;5754;43.726;7.416;2023-01-06T04:57:38;4.87;;;1.87;;
11396;SDS011;5754;43.726;7.416;2023-01-06T05:00:13;5.80;;;2.33;;
11396;SDS011;5754;43.726;7.416;2023-01-06T05:02:47;3.53;;;2.00;;
11396;SDS011;5754;43.726;7.416;2023-01-06T05:05:22;5.63;;;2.47;;
11396;SDS011;5754;43.726;7.416;2023-01-06T05:07:57;4.53;;;1.93;;
11396;SDS011;5754;43.726;7.416;2023-01-06T05:10:31;3.63;;;2.20;;
11396;SDS011;5754;43.726;7.416;2023-01-06T05:13:06;3.73;;;1.93;;
11396;SDS011;5754;43.726;7.416;2023-01-06T05:15:40;5.17;;;2.20;;
11396;SDS011;5754;43.726;7.416;2023-01-06T05:18:15;4.50;;;1.80;;
11396;SDS011;5754;43.726;7.416;2023-01-06T05:20:49;3.90;;;1.80;;
11396;SDS011;5754;43.726;7.416;2023-01-06T05:23:24;3.53;;;2.10;;
11396;SDS011;5754;43.726;7.416;2023-01-06T05:25:59;6.30;;;1.93;;
11396;SDS011;5754;43.726;7.416;2023-01-06T05:28:34;5.10;;;2.03;;
11396;SDS011;5754;43.726;7.416;2023-01-06T05:31:08;2.90;;;1.57;;
11396;SDS011;5754;43.726;7.416;2023-01-06T05:33:44;4.43;;;1.83;;
11396;SDS011;5754;43.726;7.416;2023-01-06T05:36:19;3.20;;;1.77;;
11396;SDS011;5754;43.726;7.416;2023-01-06T05:38:55;4.43;;;1.77;;
11396;SDS011;5754;43.726;7.416;2023-01-06T05:41:29;4.70;;;1.77;;
11396;SDS011;5754;43.726;7.416;2023-01-06T05:44:03;5.10;;;2.20;;
11396;SDS011;5754;43.726;7.416;2023-01-06T05:46:38;5.53;;;1.97;;
11396;SDS011;5754;43.726;7.416;2023-01-06T05:49:13;3.40;;;2.10;;
11396;SDS011;5754;43.726;7.416;2023-01-06T05:51:47;2.47;;;1.83;;
11396;SDS011;5754;43.726;7.416;2023-01-06T05:54:22;3.00;;;1.80;;
11396;SDS011;5754;43.726;7.416;2023-01-06T05:56:57;4.47;;;1.80;;
11396;SDS011;5754;43.726;7.416;2023-01-06T05:59:31;6.13;;;2.33;;
11396;SDS011;5754;43.726;7.416;2023-01-06T06:02:05;5.53;;;2.30;;
11396;SDS011;5754;43.726;7.416;2023-01-06T06:04:40;5.13;;;2.03;;
11396;SDS011;5754;43.726;7.416;2023-01-06T06:07:15;4.27;;;2.07;;
11396;SDS011;5754;43.726;7.416;2023-01-06T06:09:49;3.23;;;2.07;;
11396;SDS011;5754;43.726;7.416;2023-01-06T06:12:23;5.37;;;2.00;;
11396;SDS011;5754;43.726;7.416;2023-01-06T06:14:58;6.73;;;2.10;;
11396;SDS011;5754;43.726;7.416;2023-01-06T06:17:32;5.43;;;2.33;;
11396;SDS011;5754;43.726;7.416;2023-01-06T06:20:07;3.67;;;2.60;;
11396;SDS011;5754;43.726;7.416;2023-01-06T06:22:41;3.83;;;2.13;;
11396;SDS011;5754;43.726;7.416;2023-01-06T06:25:16;4.57;;;2.43;;
11396;SDS011;5754;43.726;7.416;2023-01-06T06:27:50;4.43;;;2.13;;
11396;SDS011;5754;43.726;7.416;2023-01-06T06:30:25;3.63;;;2.13;;
11396;SDS011;5754;43.726;7.416;2023-01-06T06:32:59;3.80;;;2.20;;
11396;SDS011;5754;43.726;7.416;2023-01-06T06:35:35;5.10;;;2.20;;
11396;SDS011;5754;43.726;7.416;2023-01-06T06:38:09;4.40;;;2.50;;
11396;SDS011;5754;43.726;7.416;2023-01-06T06:40:45;3.40;;;2.53;;
11396;SDS011;5754;43.726;7.416;2023-01-06T06:43:19;3.63;;;2.20;;
11396;SDS011;5754;43.726;7.416;2023-01-06T06:45:54;4.07;;;1.70;;
11396;SDS011;5754;43.726;7.416;2023-01-06T06:48:28;6.63;;;2.20;;
11396;SDS011;5754;43.726;7.416;2023-01-06T06:51:04;3.63;;;2.40;;
11396;SDS011;5754;43.726;7.416;2023-01-06T06:53:38;6.40;;;2.40;;
11396;SDS011;5754;43.726;7.416;2023-01-06T06:56:14;4.67;;;2.40;;
11396;SDS011;5754;43.726;7.416;2023-01-06T06:58:49;2.67;;;2.07;;
11396;SDS011;5754;43.726;7.416;2023-01-06T07:01:23;2.93;;;2.20;;
11396;SDS011;5754;43.726;7.416;2023-01-06T07:03:58;4.03;;;1.97;;
11396;SDS011;5754;43.726;7.416;2023-01-06T07:06:32;4.57;;;1.90;;
11396;SDS011;5754;43.726;7.416;2023-01-06T07:09:07;3.47;;;1.93;;
11396;SDS011;5754;43.726;7.416;2023-01-06T07:11:42;8.43;;;2.40;;
11396;SDS011;5754;43.726;7.416;2023-01-06T07:14:16;5.97;;;2.07;;
11396;SDS011;5754;43.726;7.416;2023-01-06T07:16:50;7.50;;;2.20;;
11396;SDS011;5754;43.726;7.416;2023-01-06T07:19:25;5.73;;;2.20;;
11396;SDS011;5754;43.726;7.416;2023-01-06T07:21:59;4.33;;;2.13;;
11396;SDS011;5754;43.726;7.416;2023-01-06T07:24:35;4.37;;;2.20;;
11396;SDS011;5754;43.726;7.416;2023-01-06T07:27:09;7.47;;;2.70;;
11396;SDS011;5754;43.726;7.416;2023-01-06T07:29:44;7.70;;;2.93;;
11396;SDS011;5754;43.726;7.416;2023-01-06T07:32:18;3.90;;;2.57;;
11396;SDS011;5754;43.726;7.416;2023-01-06T07:34:53;4.67;;;2.43;;
11396;SDS011;5754;43.726;7.416;2023-01-06T07:37:27;5.20;;;2.50;;
11396;SDS011;5754;43.726;7.416;2023-01-06T07:40:02;8.40;;;3.10;;
11396;SDS011;5754;43.726;7.416;2023-01-06T07:42:37;4.57;;;2.50;;
11396;SDS011;5754;43.726;7.416;2023-01-06T07:45:11;5.67;;;2.40;;
11396;SDS011;5754;43.726;7.416;2023-01-06T07:47:48;12.80;;;2.63;;
11396;SDS011;5754;43.726;7.416;2023-01-06T07:50:22;5.87;;;2.17;;
11396;SDS011;5754;43.726;7.416;2023-01-06T07:52:59;6.67;;;2.03;;
11396;SDS011;5754;43.726;7.416;2023-01-06T07:55:34;5.73;;;2.50;;
11396;SDS011;5754;43.726;7.416;2023-01-06T07:58:09;6.13;;;3.07;;
11396;SDS011;5754;43.726;7.416;2023-01-06T08:00:44;5.93;;;3.00;;
11396;SDS011;5754;43.726;7.416;2023-01-06T08:03:18;4.87;;;2.50;;
11396;SDS011;5754;43.726;7.416;2023-01-06T08:05:53;4.63;;;2.40;;
11396;SDS011;5754;43.726;7.416;2023-01-06T08:08:27;4.27;;;2.57;;
11396;SDS011;5754;43.726;7.416;2023-01-06T08:11:05;5.73;;;4.10;;
11396;SDS011;5754;43.726;7.416;2023-01-06T08:13:40;5.80;;;3.47;;
11396;SDS011;5754;43.726;7.416;2023-01-06T08:16:15;4.53;;;2.83;;
11396;SDS011;5754;43.726;7.416;2023-01-06T08:18:49;8.30;;;2.60;;
11396;SDS011;5754;43.726;7.416;2023-01-06T08:21:24;3.07;;;1.63;;
11396;SDS011;5754;43.726;7.416;2023-01-06T08:23:58;4.87;;;1.97;;
11396;SDS011;5754;43.726;7.416;2023-01-06T08:26:33;3.63;;;1.60;;
11396;SDS011;5754;43.726;7.416;2023-01-06T08:29:07;3.20;;;1.50;;
11396;SDS011;5754;43.726;7.416;2023-01-06T08:31:42;2.80;;;1.40;;
11396;SDS011;5754;43.726;7.416;2023-01-06T08:34:16;5.00;;;1.50;;
11396;SDS011;5754;43.726;7.416;2023-01-06T08:36:51;4.17;;;1.53;;
11396;SDS011;5754;43.726;7.416;2023-01-06T08:39:28;4.97;;;1.97;;
11396;SDS011;5754;43.726;7.416;2023-01-06T08:42:03;5.30;;;2.80;;
11396;SDS011;5754;43.726;7.416;2023-01-06T08:44:38;5.50;;;3.20;;
11396;SDS011;5754;43.726;7.416;2023-01-06T08:47:12;4.87;;;2.33;;
11396;SDS011;5754;43.726;7.416;2023-01-06T08:49:47;5.13;;;2.80;;
11396;SDS011;5754;43.726;7.416;2023-01-06T08:52:21;7.27;;;3.10;;
11396;SDS011;5754;43.726;7.416;2023-01-06T08:54:56;4.77;;;2.00;;
11396;SDS011;5754;43.726;7.416;2023-01-06T08:57:32;4.90;;;2.30;;
11396;SDS011;5754;43.726;7.416;2023-01-06T09:00:08;5.70;;;2.10;;
11396;SDS011;5754;43.726;7.416;2023-01-06T09:02:49;3.17;;;1.87;;
11396;SDS011;5754;43.726;7.416;2023-01-06T09:05:25;3.47;;;1.60;;
11396;SDS011;5754;43.726;7.416;2023-01-06T09:08:09;2.70;;;1.73;;
11396;SDS011;5754;43.726;7.416;2023-01-06T09:10:49;4.43;;;1.90;;
11396;SDS011;5754;43.726;7.416;2023-01-06T09:13:24;3.30;;;1.80;;
11396;SDS011;5754;43.726;7.416;2023-01-06T09:15:58;4.37;;;1.67;;
11396;SDS011;5754;43.726;7.416;2023-01-06T09:18:33;5.23;;;1.90;;
11396;SDS011;5754;43.726;7.416;2023-01-06T09:21:08;2.97;;;1.40;;
11396;SDS011;5754;43.726;7.416;2023-01-06T09:23:43;4.13;;;1.50;;
11396;SDS011;5754;43.726;7.416;2023-01-06T09:26:17;8.27;;;2.10;;
11396;SDS011;5754;43.726;7.416;2023-01-06T09:28:54;4.80;;;1.70;;
11396;SDS011;5754;43.726;7.416;2023-01-06T09:31:28;2.53;;;1.50;;
11396;SDS011;5754;43.726;7.416;2023-01-06T09:34:06;4.70;;;1.93;;
11396;SDS011;5754;43.726;7.416;2023-01-06T09:36:41;2.77;;;1.80;;
11396;SDS011;5754;43.726;7.416;2023-01-06T09:39:16;3.10;;;1.50;;
11396;SDS011;5754;43.726;7.416;2023-01-06T09:44:53;4.13;;;1.60;;
11396;SDS011;5754;43.726;7.416;2023-01-06T09:47:29;4.70;;;1.60;;
11396;SDS011;5754;43.726;7.416;2023-01-06T09:50:29;2.97;;;1.67;;
11396;SDS011;5754;43.726;7.416;2023-01-06T09:53:06;3.93;;;1.70;;
11396;SDS011;5754;43.726;7.416;2023-01-06T09:55:51;3.07;;;1.40;;
11396;SDS011;5754;43.726;7.416;2023-01-06T09:58:31;4.50;;;1.67;;
11396;SDS011;5754;43.726;7.416;2023-01-06T10:01:10;2.77;;;1.60;;
11396;SDS011;5754;43.726;7.416;2023-01-06T10:03:45;2.70;;;1.30;;
11396;SDS011;5754;43.726;7.416;2023-01-06T10:06:35;3.07;;;1.33;;
11396;SDS011;5754;43.726;7.416;2023-01-06T10:09:34;3.63;;;1.60;;
11396;SDS011;5754;43.726;7.416;2023-01-06T10:12:41;3.70;;;1.50;;
11396;SDS011;5754;43.726;7.416;2023-01-06T10:19:25;5.13;;;1.80;;
11396;SDS011;5754;43.726;7.416;2023-01-06T10:26:30;1.83;;;1.50;;
11396;SDS011;5754;43.726;7.416;2023-01-06T10:29:08;2.83;;;1.60;;
11396;SDS011;5754;43.726;7.416;2023-01-06T10:31:46;3.37;;;1.57;;
11396;SDS011;5754;43.726;7.416;2023-01-06T10:34:24;4.77;;;1.40;;
11396;SDS011;5754;43.726;7.416;2023-01-06T10:40:03;3.33;;;1.67;;
11396;SDS011;5754;43.726;7.416;2023-01-06T10:42:48;2.90;;;1.60;;
11396;SDS011;5754;43.726;7.416;2023-01-06T10:45:37;3.00;;;1.50;;
11396;SDS011;5754;43.726;7.416;2023-01-06T10:48:17;4.77;;;1.73;;
11396;SDS011;5754;43.726;7.416;2023-01-06T10:50:53;2.27;;;1.40;;
11396;SDS011;5754;43.726;7.416;2023-01-06T10:53:29;3.57;;;1.30;;
11396;SDS011;5754;43.726;7.416;2023-01-06T10:56:04;3.03;;;1.60;;
11396;SDS011;5754;43.726;7.416;2023-01-06T10:58:49;4.10;;;1.60;;
11396;SDS011;5754;43.726;7.416;2023-01-06T11:01:27;3.73;;;1.27;;
11396;SDS011;5754;43.726;7.416;2023-01-06T11:04:03;3.23;;;1.40;;
11396;SDS011;5754;43.726;7.416;2023-01-06T11:06:42;4.23;;;1.70;;
11396;SDS011;5754;43.726;7.416;2023-01-06T11:09:21;5.37;;;2.10;;
11396;SDS011;5754;43.726;7.416;2023-01-06T11:11:56;4.17;;;1.90;;
11396;SDS011;5754;43.726;7.416;2023-01-06T11:14:32;4.30;;;1.70;;
11396;SDS011;5754;43.726;7.416;2023-01-06T11:17:13;5.10;;;1.80;;
11396;SDS011;5754;43.726;7.416;2023-01-06T11:20:03;3.70;;;1.70;;
11396;SDS011;5754;43.726;7.416;2023-01-06T11:22:40;3.07;;;1.70;;
11396;SDS011;5754;43.726;7.416;2023-01-06T11:25:23;2.83;;;1.70;;
11396;SDS011;5754;43.726;7.416;2023-01-06T11:28:12;2.50;;;1.40;;
11396;SDS011;5754;43.726;7.416;2023-01-06T11:30:51;4.43;;;1.80;;
11396;SDS011;5754;43.726;7.416;2023-01-06T11:33:28;3.63;;;1.90;;
11396;SDS011;5754;43.726;7.416;2023-01-06T11:36:10;3.77;;;1.90;;
11396;SDS011;5754;43.726;7.416;2023-01-06T11:38:46;4.30;;;1.77;;
11396;SDS011;5754;43.726;7.416;2023-01-06T11:41:26;2.37;;;1.60;;
11396;SDS011;5754;43.726;7.416;2023-01-06T11:44:08;6.10;;;1.90;;
11396;SDS011;5754;43.726;7.416;2023-01-06T11:46:50;6.30;;;2.00;;
11396;SDS011;5754;43.726;7.416;2023-01-06T11:49:30;4.17;;;2.00;;
11396;SDS011;5754;43.726;7.416;2023-01-06T11:55:41;5.47;;;2.47;;
11396;SDS011;5754;43.726;7.416;2023-01-06T11:58:17;2.73;;;1.90;;
11396;SDS011;5754;43.726;7.416;2023-01-06T12:01:05;4.90;;;2.20;;
11396;SDS011;5754;43.726;7.416;2023-01-06T12:03:43;6.07;;;2.03;;
11396;SDS011;5754;43.726;7.416;2023-01-06T12:06:35;4.07;;;1.90;;
11396;SDS011;5754;43.726;7.416;2023-01-06T12:09:18;4.43;;;2.10;;
11396;SDS011;5754;43.726;7.416;2023-01-06T12:11:56;5.57;;;2.30;;
11396;SDS011;5754;43.726;7.416;2023-01-06T12:14:35;5.57;;;2.20;;
11396;SDS011;5754;43.726;7.416;2023-01-06T12:17:26;3.03;;;1.97;;
11396;SDS011;5754;43.726;7.416;2023-01-06T12:23:36;4.50;;;1.80;;
11396;SDS011;5754;43.726;7.416;2023-01-06T12:26:14;5.03;;;1.83;;
11396;SDS011;5754;43.726;7.416;2023-01-06T12:28:51;5.57;;;1.77;;
11396;SDS011;5754;43.726;7.416;2023-01-06T12:31:28;4.60;;;1.80;;
11396;SDS011;5754;43.726;7.416;2023-01-06T12:34:25;3.60;;;2.10;;
11396;SDS011;5754;43.726;7.416;2023-01-06T12:37:37;5.07;;;2.00;;
11396;SDS011;5754;43.726;7.416;2023-01-06T12:40:59;5.23;;;2.10;;
11396;SDS011;5754;43.726;7.416;2023-01-06T12:43:36;2.93;;;2.03;;
11396;SDS011;5754;43.726;7.416;2023-01-06T12:46:15;2.77;;;1.97;;
11396;SDS011;5754;43.726;7.416;2023-01-06T12:48:53;2.70;;;2.17;;
11396;SDS011;5754;43.726;7.416;2023-01-06T12:51:31;4.87;;;1.97;;
11396;SDS011;5754;43.726;7.416;2023-01-06T12:54:17;3.67;;;2.27;;
11396;SDS011;5754;43.726;7.416;2023-01-06T12:57:57;7.23;;;2.83;;
11396;SDS011;5754;43.726;7.416;2023-01-06T13:01:16;5.27;;;2.20;;
11396;SDS011;5754;43.726;7.416;2023-01-06T13:04:02;4.83;;;2.20;;
11396;SDS011;5754;43.726;7.416;2023-01-06T13:06:56;4.77;;;2.50;;
11396;SDS011;5754;43.726;7.416;2023-01-06T13:10:21;5.30;;;2.57;;
11396;SDS011;5754;43.726;7.416;2023-01-06T13:18:44;3.07;;;2.20;;
11396;SDS011;5754;43.726;7.416;2023-01-06T13:21:19;3.70;;;1.83;;
11396;SDS011;5754;43.726;7.416;2023-01-06T13:24:59;3.17;;;2.10;;
11396;SDS011;5754;43.726;7.416;2023-01-06T13:27:59;3.70;;;2.00;;
11396;SDS011;5754;43.726;7.416;2023-01-06T13:31:02;5.97;;;2.00;;
11396;SDS011;5754;43.726;7.416;2023-01-06T13:35:19;2.80;;;1.83;;
11396;SDS011;5754;43.726;7.416;2023-01-06T13:38:18;2.87;;;1.70;;
11396;SDS011;5754;43.726;7.416;2023-01-06T13:40:59;2.50;;;1.57;;
11396;SDS011;5754;43.726;7.416;2023-01-06T13:43:34;2.40;;;1.50;;
11396;SDS011;5754;43.726;7.416;2023-01-06T13:46:09;3.53;;;2.00;;
11396;SDS011;5754;43.726;7.416;2023-01-06T13:48:47;3.40;;;1.97;;
11396;SDS011;5754;43.726;7.416;2023-01-06T13:51:25;6.90;;;1.63;;
11396;SDS011;5754;43.726;7.416;2023-01-06T13:54:00;4.70;;;1.90;;
11396;SDS011;5754;43.726;7.416;2023-01-06T13:56:35;3.20;;;1.70;;
11396;SDS011;5754;43.726;7.416;2023-01-06T13:59:16;2.57;;;1.63;;
11396;SDS011;5754;43.726;7.416;2023-01-06T14:01:51;3.67;;;1.80;;
11396;SDS011;5754;43.726;7.416;2023-01-06T14:07:08;3.30;;;1.43;;
11396;SDS011;5754;43.726;7.416;2023-01-06T14:09:47;4.63;;;1.80;;
11396;SDS011;5754;43.726;7.416;2023-01-06T14:12:23;5.10;;;1.97;;
11396;SDS011;5754;43.726;7.416;2023-01-06T14:15:17;2.67;;;1.90;;
11396;SDS011;5754;43.726;7.416;2023-01-06T14:17:52;2.40;;;1.60;;
11396;SDS011;5754;43.726;7.416;2023-01-06T14:20:33;4.87;;;1.97;;
11396;SDS011;5754;43.726;7.416;2023-01-06T14:26:01;4.00;;;1.60;;
11396;SDS011;5754;43.726;7.416;2023-01-06T14:28:37;2.70;;;1.60;;
11396;SDS011;5754;43.726;7.416;2023-01-06T14:40:39;2.50;;;1.63;;
11396;SDS011;5754;43.726;7.416;2023-01-06T14:43:28;4.47;;;1.70;;
11396;SDS011;5754;43.726;7.416;2023-01-06T14:46:15;3.43;;;1.90;;
11396;SDS011;5754;43.726;7.416;2023-01-06T14:52:52;3.23;;;1.93;;
11396;SDS011;5754;43.726;7.416;2023-01-06T14:55:30;5.67;;;2.37;;
11396;SDS011;5754;43.726;7.416;2023-01-06T14:58:04;2.80;;;2.07;;
11396;SDS011;5754;43.726;7.416;2023-01-06T15:00:39;5.43;;;2.30;;
11396;SDS011;5754;43.726;7.416;2023-01-06T15:03:22;4.23;;;2.20;;
11396;SDS011;5754;43.726;7.416;2023-01-06T15:06:17;3.53;;;2.20;;
11396;SDS011;5754;43.726;7.416;2023-01-06T15:08:52;5.17;;;2.30;;
11396;SDS011;5754;43.726;7.416;2023-01-06T15:11:29;4.37;;;2.47;;
11396;SDS011;5754;43.726;7.416;2023-01-06T15:14:13;4.03;;;2.40;;
11396;SDS011;5754;43.726;7.416;2023-01-06T15:16:57;4.93;;;2.17;;
11396;SDS011;5754;43.726;7.416;2023-01-06T15:19:33;2.77;;;2.03;;
11396;SDS011;5754;43.726;7.416;2023-01-06T15:22:08;3.57;;;2.10;;
11396;SDS011;5754;43.726;7.416;2023-01-06T15:24:43;4.53;;;2.40;;
11396;SDS011;5754;43.726;7.416;2023-01-06T15:27:18;6.97;;;3.63;;
11396;SDS011;5754;43.726;7.416;2023-01-06T15:29:55;9.70;;;7.00;;
11396;SDS011;5754;43.726;7.416;2023-01-06T15:32:30;10.73;;;6.97;;
11396;SDS011;5754;43.726;7.416;2023-01-06T15:35:08;6.20;;;3.57;;
11396;SDS011;5754;43.726;7.416;2023-01-06T15:37:45;5.53;;;3.03;;
11396;SDS011;5754;43.726;7.416;2023-01-06T15:40:20;3.53;;;2.60;;
11396;SDS011;5754;43.726;7.416;2023-01-06T15:42:55;2.33;;;2.00;;
11396;SDS011;5754;43.726;7.416;2023-01-06T15:45:30;4.10;;;2.40;;
11396;SDS011;5754;43.726;7.416;2023-01-06T15:48:14;4.77;;;2.50;;
11396;SDS011;5754;43.726;7.416;2023-01-06T15:50:49;3.57;;;2.00;;
11396;SDS011;5754;43.726;7.416;2023-01-06T15:53:27;3.63;;;2.00;;
11396;SDS011;5754;43.726;7.416;2023-01-06T15:56:16;3.60;;;2.00;;
11396;SDS011;5754;43.726;7.416;2023-01-06T15:58:52;3.03;;;1.80;;
11396;SDS011;5754;43.726;7.416;2023-01-06T16:01:30;4.37;;;1.87;;
11396;SDS011;5754;43.726;7.416;2023-01-06T16:04:04;4.33;;;2.50;;
11396;SDS011;5754;43.726;7.416;2023-01-06T16:06:39;3.17;;;2.47;;
11396;SDS011;5754;43.726;7.416;2023-01-06T16:12:21;3.77;;;2.37;;
11396;SDS011;5754;43.726;7.416;2023-01-06T16:14:56;5.50;;;2.30;;
11396;SDS011;5754;43.726;7.416;2023-01-06T16:17:31;3.40;;;2.30;;
11396;SDS011;5754;43.726;7.416;2023-01-06T16:20:20;3.43;;;1.83;;
11396;SDS011;5754;43.726;7.416;2023-01-06T16:22:55;2.47;;;2.00;;
11396;SDS011;5754;43.726;7.416;2023-01-06T16:25:31;3.13;;;1.90;;
11396;SDS011;5754;43.726;7.416;2023-01-06T16:28:11;3.37;;;2.00;;
11396;SDS011;5754;43.726;7.416;2023-01-06T16:31:04;3.27;;;2.20;;
11396;SDS011;5754;43.726;7.416;2023-01-06T16:33:43;3.37;;;2.30;;
11396;SDS011;5754;43.726;7.416;2023-01-06T16:36:20;4.43;;;2.07;;
11396;SDS011;5754;43.726;7.416;2023-01-06T16:38:55;3.90;;;2.30;;
11396;SDS011;5754;43.726;7.416;2023-01-06T16:41:29;3.33;;;2.10;;
11396;SDS011;5754;43.726;7.416;2023-01-06T16:44:04;2.80;;;1.90;;
11396;SDS011;5754;43.726;7.416;2023-01-06T16:46:39;5.30;;;2.40;;
11396;SDS011;5754;43.726;7.416;2023-01-06T16:49:13;4.63;;;2.30;;
11396;SDS011;5754;43.726;7.416;2023-01-06T16:51:48;3.17;;;2.23;;
11396;SDS011;5754;43.726;7.416;2023-01-06T16:54:23;4.80;;;2.63;;
11396;SDS011;5754;43.726;7.416;2023-01-06T16:57:01;3.43;;;2.37;;
11396;SDS011;5754;43.726;7.416;2023-01-06T16:59:36;4.53;;;2.20;;
11396;SDS011;5754;43.726;7.416;2023-01-06T17:02:12;3.67;;;2.20;;
11396;SDS011;5754;43.726;7.416;2023-01-06T17:04:48;2.90;;;2.20;;
11396;SDS011;5754;43.726;7.416;2023-01-06T17:07:22;4.10;;;2.40;;
11396;SDS011;5754;43.726;7.416;2023-01-06T17:09:59;3.53;;;2.47;;
11396;SDS011;5754;43.726;7.416;2023-01-06T17:12:33;3.60;;;2.40;;
11396;SDS011;5754;43.726;7.416;2023-01-06T17:15:26;2.93;;;2.30;;
11396;SDS011;5754;43.726;7.416;2023-01-06T17:18:00;2.87;;;2.57;;
11396;SDS011;5754;43.726;7.416;2023-01-06T17:20:35;3.87;;;2.90;;
11396;SDS011;5754;43.726;7.416;2023-01-06T17:23:09;4.27;;;2.67;;
11396;SDS011;5754;43.726;7.416;2023-01-06T17:25:45;3.90;;;2.40;;
11396;SDS011;5754;43.726;7.416;2023-01-06T17:28:20;4.03;;;2.40;;
11396;SDS011;5754;43.726;7.416;2023-01-06T17:30:55;5.37;;;2.87;;
11396;SDS011;5754;43.726;7.416;2023-01-06T17:33:30;7.50;;;2.83;;
11396;SDS011;5754;43.726;7.416;2023-01-06T17:36:04;3.97;;;2.20;;
11396;SDS011;5754;43.726;7.416;2023-01-06T17:38:39;4.10;;;2.40;;
11396;SDS011;5754;43.726;7.416;2023-01-06T17:41:15;4.87;;;2.70;;
11396;SDS011;5754;43.726;7.416;2023-01-06T17:43:50;10.97;;;3.63;;